createdAt,value
2022-08-25T00:41:17.010Z,20.6
2022-08-25T00:48:32.428Z,20.5
2022-08-25T00:58:33.447Z,20.3
2022-08-25T01:08:33.629Z,20.2
2022-08-25T01:18:34.302Z,20.1
2022-08-25T01:28:35.317Z,20.1
2022-08-25T01:38:35.725Z,20
2022-08-25T01:48:36.658Z,19.8
2022-08-25T01:58:37.247Z,19.6
2022-08-25T02:08:37.413Z,19.4
2022-08-25T02:18:37.669Z,19.2
2022-08-25T02:28:37.862Z,19.1
2022-08-25T02:38:38.019Z,19.1
2022-08-25T02:48:38.702Z,19.1
2022-08-25T02:58:39.403Z,19
2022-08-25T03:08:40.242Z,19
2022-08-25T03:18:41.213Z,18.9
2022-08-25T03:28:42.105Z,18.9
2022-08-25T03:38:42.376Z,18.8
2022-08-25T03:58:43.254Z,18.7
2022-08-25T04:18:44.556Z,18.6
2022-08-25T04:38:45.423Z,18.4
2022-08-25T05:08:46.380Z,18.5
2022-08-25T05:18:47.090Z,18.6
2022-08-25T05:28:47.645Z,18.7
2022-08-25T05:48:49.320Z,19.1
2022-08-25T06:18:50.801Z,20.1
2022-08-25T06:28:51.576Z,20.5
2022-08-25T06:38:52.221Z,20.8
2022-08-25T06:48:53.010Z,21.5
2022-08-25T06:58:53.970Z,22.5
2022-08-25T07:08:54.291Z,23
2022-08-25T07:28:54.809Z,24.2
2022-08-25T08:18:57.874Z,26.8
2022-08-25T08:48:59.247Z,27.7
2022-08-25T09:19:01.838Z,28.9
2022-08-25T09:49:04.507Z,29.6
2022-08-25T10:29:06.731Z,30.8
2022-08-25T10:39:31.854Z,30.2
2022-08-25T11:09:09.569Z,30.6
2022-08-25T11:29:11.423Z,30.7
2022-08-25T11:39:11.643Z,31.1
2022-08-25T11:59:12.554Z,30.8
2022-08-25T12:19:13.796Z,31.4
2022-08-25T12:49:15.776Z,31.4
2022-08-25T13:29:18.810Z,31.3
2022-08-25T13:39:25.294Z,30.6
2022-08-25T14:09:27.031Z,31.6
2022-08-25T14:29:22.273Z,31.3
2022-08-25T15:19:24.872Z,31.6
2022-08-25T15:29:25.953Z,31.5
2022-08-25T15:59:27.128Z,31.6
2022-08-25T16:09:28.155Z,31.5
2022-08-25T16:19:28.440Z,31.3
2022-08-25T16:29:29.321Z,31.4
2022-08-25T16:49:31.122Z,31.2
2022-08-25T17:29:34.364Z,30.6
2022-08-25T17:49:35.165Z,30.3
2022-08-25T17:59:35.903Z,30.1
2022-08-25T18:09:36.435Z,29.8
2022-08-25T18:19:37.422Z,29.5
2022-08-25T18:39:38.767Z,28.9
2022-08-25T18:49:39.844Z,28.6
2022-08-25T18:59:40.054Z,28.2
2022-08-25T19:09:40.813Z,27.9
2022-08-25T19:19:41.496Z,27.6
2022-08-25T19:29:42.127Z,27.4
2022-08-25T19:39:42.432Z,27.1
2022-08-25T19:49:43.298Z,26.8
2022-08-25T19:59:43.852Z,26.6
2022-08-25T20:09:45.121Z,26.3
2022-08-25T20:19:44.403Z,26.2
2022-08-25T20:29:45.229Z,26
2022-08-25T20:39:45.787Z,25.7
2022-08-25T20:49:46.460Z,25.5
2022-08-25T20:59:46.374Z,25.5
2022-08-25T21:09:47.436Z,25.3
2022-08-25T21:39:49.495Z,24.7
2022-08-25T21:49:49.731Z,24.4
2022-08-25T21:59:49.826Z,24.1
2022-08-25T22:09:49.975Z,23.9
2022-08-25T22:19:53.147Z,23.6
2022-08-25T22:29:50.565Z,23.4
2022-08-25T22:39:50.979Z,23.2
2022-08-25T22:49:51.576Z,22.7
2022-08-25T22:59:52.200Z,22.2
2022-08-25T23:09:52.319Z,21.7
2022-08-25T23:19:53.064Z,21.5
2022-08-25T23:29:53.369Z,21.6
2022-08-25T23:39:54.341Z,21.3
2022-08-25T23:49:55.426Z,21
2022-08-25T23:59:56.463Z,21
